sensor_id;sensor_type;location;lat;lon;timestamp;temperature;humidity
18721;DHT22;9489;50.948;3.114;2023-02-26T00:00:30;2.10;99.90
18721;DHT22;9489;50.948;3.114;2023-02-26T00:02:55;2.10;99.90
18721;DHT22;9489;50.948;3.114;2023-02-26T00:05:21;2.10;99.90
18721;DHT22;9489;50.948;3.114;2023-02-26T00:07:46;2.10;99.90
18721;DHT22;9489;50.948;3.114;2023-02-26T00:10:13;2.10;99.90
18721;DHT22;9489;50.948;3.114;2023-02-26T00:12:41;2.10;99.90
18721;DHT22;9489;50.948;3.114;2023-02-26T00:15:07;2.10;99.90
18721;DHT22;9489;50.948;3.114;2023-02-26T00:17:43;2.20;99.90
18721;DHT22;9489;50.948;3.114;2023-02-26T00:20:10;2.20;99.90
18721;DHT22;9489;50.948;3.114;2023-02-26T00:22:40;2.30;99.90
18721;DHT22;9489;50.948;3.114;2023-02-26T00:25:06;2.40;99.90
18721;DHT22;9489;50.948;3.114;2023-02-26T00:27:32;2.40;99.90
18721;DHT22;9489;50.948;3.114;2023-02-26T00:30:02;2.40;99.90
18721;DHT22;9489;50.948;3.114;2023-02-26T00:32:28;2.40;99.90
18721;DHT22;9489;50.948;3.114;2023-02-26T00:34:54;2.50;99.90
18721;DHT22;9489;50.948;3.114;2023-02-26T00:37:27;2.40;99.90
18721;DHT22;9489;50.948;3.114;2023-02-26T00:42:39;2.40;99.90
18721;DHT22;9489;50.948;3.114;2023-02-26T00:45:05;2.50;99.90
18721;DHT22;9489;50.948;3.114;2023-02-26T00:50:22;2.50;99.90
18721;DHT22;9489;50.948;3.114;2023-02-26T00:55:26;2.40;99.90
18721;DHT22;9489;50.948;3.114;2023-02-26T00:57:51;2.40;99.90
18721;DHT22;9489;50.948;3.114;2023-02-26T01:00:18;2.30;99.90
18721;DHT22;9489;50.948;3.114;2023-02-26T01:02:44;2.30;99.90
18721;DHT22;9489;50.948;3.114;2023-02-26T01:05:10;2.30;99.90
18721;DHT22;9489;50.948;3.114;2023-02-26T01:10:09;2.20;99.90
18721;DHT22;9489;50.948;3.114;2023-02-26T01:12:35;2.20;99.90
18721;DHT22;9489;50.948;3.114;2023-02-26T01:15:02;2.20;99.90
18721;DHT22;9489;50.948;3.114;2023-02-26T01:20:00;2.20;99.90
18721;DHT22;9489;50.948;3.114;2023-02-26T01:22:43;2.20;99.90
18721;DHT22;9489;50.948;3.114;2023-02-26T01:25:17;2.10;99.90
18721;DHT22;9489;50.948;3.114;2023-02-26T01:27:45;2.10;99.90
18721;DHT22;9489;50.948;3.114;2023-02-26T01:30:11;2.10;99.90
18721;DHT22;9489;50.948;3.114;2023-02-26T01:33:07;2.00;99.90
18721;DHT22;9489;50.948;3.114;2023-02-26T01:35:39;2.00;99.90
18721;DHT22;9489;50.948;3.114;2023-02-26T01:41:15;1.90;99.90
18721;DHT22;9489;50.948;3.114;2023-02-26T01:47:05;1.90;99.90
18721;DHT22;9489;50.948;3.114;2023-02-26T01:49:35;1.90;99.90
18721;DHT22;9489;50.948;3.114;2023-02-26T01:52:05;1.90;99.90
18721;DHT22;9489;50.948;3.114;2023-02-26T01:54:37;1.90;99.90
18721;DHT22;9489;50.948;3.114;2023-02-26T01:57:12;1.90;99.90
18721;DHT22;9489;50.948;3.114;2023-02-26T01:59:42;1.90;99.90
18721;DHT22;9489;50.948;3.114;2023-02-26T02:02:10;2.00;99.90
18721;DHT22;9489;50.948;3.114;2023-02-26T02:04:37;2.00;99.90
18721;DHT22;9489;50.948;3.114;2023-02-26T02:07:04;2.10;99.90
18721;DHT22;9489;50.948;3.114;2023-02-26T02:09:29;2.20;99.90
18721;DHT22;9489;50.948;3.114;2023-02-26T02:15:09;2.40;99.90
18721;DHT22;9489;50.948;3.114;2023-02-26T02:17:40;2.50;99.90
18721;DHT22;9489;50.948;3.114;2023-02-26T02:20:26;2.60;99.90
18721;DHT22;9489;50.948;3.114;2023-02-26T02:26:24;2.90;99.90
18721;DHT22;9489;50.948;3.114;2023-02-26T02:31:49;3.20;99.90
18721;DHT22;9489;50.948;3.114;2023-02-26T02:39:53;3.40;99.90
18721;DHT22;9489;50.948;3.114;2023-02-26T02:42:49;3.40;99.90
18721;DHT22;9489;50.948;3.114;2023-02-26T02:45:39;3.50;99.90
18721;DHT22;9489;50.948;3.114;2023-02-26T02:50:46;3.60;99.90
18721;DHT22;9489;50.948;3.114;2023-02-26T02:53:29;3.60;99.90
18721;DHT22;9489;50.948;3.114;2023-02-26T02:56:24;3.70;99.90
18721;DHT22;9489;50.948;3.114;2023-02-26T03:01:41;3.80;99.90
18721;DHT22;9489;50.948;3.114;2023-02-26T03:04:11;3.80;99.90
18721;DHT22;9489;50.948;3.114;2023-02-26T03:06:38;3.90;99.90
18721;DHT22;9489;50.948;3.114;2023-02-26T03:09:05;4.00;99.90
18721;DHT22;9489;50.948;3.114;2023-02-26T03:11:32;4.00;99.90
18721;DHT22;9489;50.948;3.114;2023-02-26T03:13:58;4.00;99.90
18721;DHT22;9489;50.948;3.114;2023-02-26T03:21:50;4.20;99.90
18721;DHT22;9489;50.948;3.114;2023-02-26T03:24:22;4.20;99.90
18721;DHT22;9489;50.948;3.114;2023-02-26T03:27:06;4.20;99.90
18721;DHT22;9489;50.948;3.114;2023-02-26T03:32:16;4.20;99.90
18721;DHT22;9489;50.948;3.114;2023-02-26T03:34:52;4.10;99.90
18721;DHT22;9489;50.948;3.114;2023-02-26T03:37:24;4.00;99.90
18721;DHT22;9489;50.948;3.114;2023-02-26T03:39:55;4.00;99.90
18721;DHT22;9489;50.948;3.114;2023-02-26T03:42:27;3.90;99.90
18721;DHT22;9489;50.948;3.114;2023-02-26T03:47:54;4.00;99.90
18721;DHT22;9489;50.948;3.114;2023-02-26T03:50:51;4.00;99.90
18721;DHT22;9489;50.948;3.114;2023-02-26T03:53:24;4.00;99.90
18721;DHT22;9489;50.948;3.114;2023-02-26T03:58:36;4.00;99.90
18721;DHT22;9489;50.948;3.114;2023-02-26T04:01:14;4.00;99.90
18721;DHT22;9489;50.948;3.114;2023-02-26T04:03:54;4.00;99.90
18721;DHT22;9489;50.948;3.114;2023-02-26T04:06:21;3.90;99.90
18721;DHT22;9489;50.948;3.114;2023-02-26T04:08:48;3.80;99.90
18721;DHT22;9489;50.948;3.114;2023-02-26T04:11:18;3.60;99.90
18721;DHT22;9489;50.948;3.114;2023-02-26T04:13:44;3.60;99.90
18721;DHT22;9489;50.948;3.114;2023-02-26T04:16:10;3.60;99.90
18721;DHT22;9489;50.948;3.114;2023-02-26T04:18:36;3.60;99.90
18721;DHT22;9489;50.948;3.114;2023-02-26T04:21:02;3.70;99.90
18721;DHT22;9489;50.948;3.114;2023-02-26T04:23:29;3.70;99.90
18721;DHT22;9489;50.948;3.114;2023-02-26T04:25:54;3.70;99.90
18721;DHT22;9489;50.948;3.114;2023-02-26T04:28:20;3.80;99.90
18721;DHT22;9489;50.948;3.114;2023-02-26T04:30:46;3.80;99.90
18721;DHT22;9489;50.948;3.114;2023-02-26T04:33:12;3.80;99.90
18721;DHT22;9489;50.948;3.114;2023-02-26T04:35:38;3.90;99.90
18721;DHT22;9489;50.948;3.114;2023-02-26T04:38:04;4.00;99.90
18721;DHT22;9489;50.948;3.114;2023-02-26T04:40:30;3.90;99.90
18721;DHT22;9489;50.948;3.114;2023-02-26T04:42:55;3.90;99.90
18721;DHT22;9489;50.948;3.114;2023-02-26T04:45:21;4.00;99.90
18721;DHT22;9489;50.948;3.114;2023-02-26T04:47:47;3.90;99.90
18721;DHT22;9489;50.948;3.114;2023-02-26T04:50:13;3.90;99.90
18721;DHT22;9489;50.948;3.114;2023-02-26T04:52:38;3.80;99.90
18721;DHT22;9489;50.948;3.114;2023-02-26T04:55:05;3.80;99.90
18721;DHT22;9489;50.948;3.114;2023-02-26T04:57:32;3.70;99.90
18721;DHT22;9489;50.948;3.114;2023-02-26T04:59:58;3.70;99.90
18721;DHT22;9489;50.948;3.114;2023-02-26T05:02:23;3.60;99.90
18721;DHT22;9489;50.948;3.114;2023-02-26T05:04:49;3.60;99.90
18721;DHT22;9489;50.948;3.114;2023-02-26T05:07:15;3.50;99.90
18721;DHT22;9489;50.948;3.114;2023-02-26T05:09:40;3.50;99.90
18721;DHT22;9489;50.948;3.114;2023-02-26T05:12:06;3.50;99.90
18721;DHT22;9489;50.948;3.114;2023-02-26T05:14:32;3.40;99.90
18721;DHT22;9489;50.948;3.114;2023-02-26T05:16:57;3.30;99.90
18721;DHT22;9489;50.948;3.114;2023-02-26T05:19:23;3.30;99.90
18721;DHT22;9489;50.948;3.114;2023-02-26T05:21:48;3.20;99.90
18721;DHT22;9489;50.948;3.114;2023-02-26T05:24:15;3.20;99.90
18721;DHT22;9489;50.948;3.114;2023-02-26T05:26:41;3.10;99.90
18721;DHT22;9489;50.948;3.114;2023-02-26T05:29:06;3.00;99.90
18721;DHT22;9489;50.948;3.114;2023-02-26T05:31:32;3.00;99.90
18721;DHT22;9489;50.948;3.114;2023-02-26T05:33:58;3.00;99.90
18721;DHT22;9489;50.948;3.114;2023-02-26T05:36:23;2.90;99.90
18721;DHT22;9489;50.948;3.114;2023-02-26T05:38:49;2.90;99.90
18721;DHT22;9489;50.948;3.114;2023-02-26T05:41:14;2.90;99.90
18721;DHT22;9489;50.948;3.114;2023-02-26T05:43:40;2.80;99.90
18721;DHT22;9489;50.948;3.114;2023-02-26T05:46:06;2.80;99.90
18721;DHT22;9489;50.948;3.114;2023-02-26T05:48:32;2.80;99.90
18721;DHT22;9489;50.948;3.114;2023-02-26T05:50:58;2.80;99.90
18721;DHT22;9489;50.948;3.114;2023-02-26T05:53:24;2.80;99.90
18721;DHT22;9489;50.948;3.114;2023-02-26T05:55:52;2.80;99.90
18721;DHT22;9489;50.948;3.114;2023-02-26T05:58:17;2.80;99.90
18721;DHT22;9489;50.948;3.114;2023-02-26T06:00:43;2.70;99.90
18721;DHT22;9489;50.948;3.114;2023-02-26T06:03:09;2.70;99.90
18721;DHT22;9489;50.948;3.114;2023-02-26T06:05:34;2.60;99.90
18721;DHT22;9489;50.948;3.114;2023-02-26T06:08:01;2.60;99.90
18721;DHT22;9489;50.948;3.114;2023-02-26T06:10:26;2.60;99.90
18721;DHT22;9489;50.948;3.114;2023-02-26T06:12:52;2.60;99.90
18721;DHT22;9489;50.948;3.114;2023-02-26T06:15:17;2.60;99.90
18721;DHT22;9489;50.948;3.114;2023-02-26T06:17:44;2.60;99.90
18721;DHT22;9489;50.948;3.114;2023-02-26T06:20:10;2.60;99.90
18721;DHT22;9489;50.948;3.114;2023-02-26T06:22:36;2.50;99.90
18721;DHT22;9489;50.948;3.114;2023-02-26T06:25:02;2.60;99.90
18721;DHT22;9489;50.948;3.114;2023-02-26T06:27:27;2.50;99.90
18721;DHT22;9489;50.948;3.114;2023-02-26T06:29:53;2.50;99.90
18721;DHT22;9489;50.948;3.114;2023-02-26T06:32:19;2.40;99.90
18721;DHT22;9489;50.948;3.114;2023-02-26T06:34:44;2.30;99.90
18721;DHT22;9489;50.948;3.114;2023-02-26T06:37:10;2.30;99.90
18721;DHT22;9489;50.948;3.114;2023-02-26T06:39:35;2.20;99.90
18721;DHT22;9489;50.948;3.114;2023-02-26T06:42:01;2.20;99.90
18721;DHT22;9489;50.948;3.114;2023-02-26T06:44:27;2.20;99.90
18721;DHT22;9489;50.948;3.114;2023-02-26T06:46:52;2.10;99.90
18721;DHT22;9489;50.948;3.114;2023-02-26T06:49:18;2.10;99.90
18721;DHT22;9489;50.948;3.114;2023-02-26T06:51:43;2.10;99.90
18721;DHT22;9489;50.948;3.114;2023-02-26T06:54:09;2.10;99.90
18721;DHT22;9489;50.948;3.114;2023-02-26T06:56:35;2.10;99.90
18721;DHT22;9489;50.948;3.114;2023-02-26T06:59:00;2.20;99.90
18721;DHT22;9489;50.948;3.114;2023-02-26T07:01:26;2.10;99.90
18721;DHT22;9489;50.948;3.114;2023-02-26T07:03:52;2.10;99.90
18721;DHT22;9489;50.948;3.114;2023-02-26T07:06:17;2.20;99.90
18721;DHT22;9489;50.948;3.114;2023-02-26T07:08:43;2.20;99.90
18721;DHT22;9489;50.948;3.114;2023-02-26T07:11:09;2.20;99.90
18721;DHT22;9489;50.948;3.114;2023-02-26T07:13:36;2.30;99.90
18721;DHT22;9489;50.948;3.114;2023-02-26T07:16:03;2.30;99.90
18721;DHT22;9489;50.948;3.114;2023-02-26T07:18:35;2.30;99.90
18721;DHT22;9489;50.948;3.114;2023-02-26T07:21:01;2.40;99.90
18721;DHT22;9489;50.948;3.114;2023-02-26T07:23:27;2.50;99.90
18721;DHT22;9489;50.948;3.114;2023-02-26T07:25:52;2.60;99.90
18721;DHT22;9489;50.948;3.114;2023-02-26T07:28:18;2.60;99.90
18721;DHT22;9489;50.948;3.114;2023-02-26T07:30:45;2.60;99.90
18721;DHT22;9489;50.948;3.114;2023-02-26T07:33:11;2.80;99.90
18721;DHT22;9489;50.948;3.114;2023-02-26T07:35:37;3.10;99.90
18721;DHT22;9489;50.948;3.114;2023-02-26T07:38:02;3.50;99.90
18721;DHT22;9489;50.948;3.114;2023-02-26T07:40:28;4.00;99.90
18721;DHT22;9489;50.948;3.114;2023-02-26T07:42:54;4.50;99.90
18721;DHT22;9489;50.948;3.114;2023-02-26T07:45:20;5.00;99.90
18721;DHT22;9489;50.948;3.114;2023-02-26T07:47:48;5.50;99.90
18721;DHT22;9489;50.948;3.114;2023-02-26T07:50:13;6.00;99.90
18721;DHT22;9489;50.948;3.114;2023-02-26T07:52:39;6.30;99.90
18721;DHT22;9489;50.948;3.114;2023-02-26T07:55:06;6.80;99.90
18721;DHT22;9489;50.948;3.114;2023-02-26T07:57:32;7.10;99.90
18721;DHT22;9489;50.948;3.114;2023-02-26T07:59:58;7.30;99.90
18721;DHT22;9489;50.948;3.114;2023-02-26T08:02:23;7.90;99.90
18721;DHT22;9489;50.948;3.114;2023-02-26T08:04:49;8.30;99.90
18721;DHT22;9489;50.948;3.114;2023-02-26T08:07:14;8.70;99.90
18721;DHT22;9489;50.948;3.114;2023-02-26T08:09:40;9.00;99.90
18721;DHT22;9489;50.948;3.114;2023-02-26T08:12:06;9.10;99.90
18721;DHT22;9489;50.948;3.114;2023-02-26T08:14:31;9.30;99.90
18721;DHT22;9489;50.948;3.114;2023-02-26T08:16:57;9.50;99.90
18721;DHT22;9489;50.948;3.114;2023-02-26T08:19:22;9.70;99.90
18721;DHT22;9489;50.948;3.114;2023-02-26T08:21:48;10.00;99.90
18721;DHT22;9489;50.948;3.114;2023-02-26T08:24:14;10.50;99.90
18721;DHT22;9489;50.948;3.114;2023-02-26T08:26:39;10.70;99.90
18721;DHT22;9489;50.948;3.114;2023-02-26T08:29:06;10.80;99.90
18721;DHT22;9489;50.948;3.114;2023-02-26T08:31:32;11.00;99.90
18721;DHT22;9489;50.948;3.114;2023-02-26T08:34:00;11.20;99.90
18721;DHT22;9489;50.948;3.114;2023-02-26T08:36:26;11.40;99.90
18721;DHT22;9489;50.948;3.114;2023-02-26T08:38:51;11.60;99.90
18721;DHT22;9489;50.948;3.114;2023-02-26T08:41:17;11.50;99.90
18721;DHT22;9489;50.948;3.114;2023-02-26T08:43:43;11.70;99.90
18721;DHT22;9489;50.948;3.114;2023-02-26T08:46:09;11.90;99.90
18721;DHT22;9489;50.948;3.114;2023-02-26T08:48:34;11.90;99.90
18721;DHT22;9489;50.948;3.114;2023-02-26T08:51:00;11.90;99.90
18721;DHT22;9489;50.948;3.114;2023-02-26T08:53:26;12.00;99.90
18721;DHT22;9489;50.948;3.114;2023-02-26T08:55:52;12.20;99.40
18721;DHT22;9489;50.948;3.114;2023-02-26T08:58:18;12.10;98.20
18721;DHT22;9489;50.948;3.114;2023-02-26T09:00:44;12.30;98.20
18721;DHT22;9489;50.948;3.114;2023-02-26T09:03:10;12.40;97.70
18721;DHT22;9489;50.948;3.114;2023-02-26T09:05:36;13.00;96.80
18721;DHT22;9489;50.948;3.114;2023-02-26T09:08:02;12.80;95.20
18721;DHT22;9489;50.948;3.114;2023-02-26T09:10:28;13.10;94.20
18721;DHT22;9489;50.948;3.114;2023-02-26T09:12:53;13.40;93.90
18721;DHT22;9489;50.948;3.114;2023-02-26T09:15:19;13.50;92.70
18721;DHT22;9489;50.948;3.114;2023-02-26T09:17:45;13.10;90.30
18721;DHT22;9489;50.948;3.114;2023-02-26T09:20:11;13.30;90.10
18721;DHT22;9489;50.948;3.114;2023-02-26T09:22:38;13.30;90.00
18721;DHT22;9489;50.948;3.114;2023-02-26T09:25:05;12.60;90.30
18721;DHT22;9489;50.948;3.114;2023-02-26T09:27:31;13.10;91.70
18721;DHT22;9489;50.948;3.114;2023-02-26T09:29:56;13.70;90.30
18721;DHT22;9489;50.948;3.114;2023-02-26T09:32:22;14.20;85.90
18721;DHT22;9489;50.948;3.114;2023-02-26T09:34:48;14.30;86.00
18721;DHT22;9489;50.948;3.114;2023-02-26T09:37:14;14.20;82.90
18721;DHT22;9489;50.948;3.114;2023-02-26T09:39:39;13.70;84.60
18721;DHT22;9489;50.948;3.114;2023-02-26T09:42:30;13.80;82.30
18721;DHT22;9489;50.948;3.114;2023-02-26T09:44:58;13.90;81.70
18721;DHT22;9489;50.948;3.114;2023-02-26T09:47:37;14.40;82.20
18721;DHT22;9489;50.948;3.114;2023-02-26T09:50:31;15.00;80.50
18721;DHT22;9489;50.948;3.114;2023-02-26T09:53:06;14.70;78.50
18721;DHT22;9489;50.948;3.114;2023-02-26T09:55:47;15.40;75.10
18721;DHT22;9489;50.948;3.114;2023-02-26T09:58:22;15.40;74.40
18721;DHT22;9489;50.948;3.114;2023-02-26T10:03:57;15.40;68.90
18721;DHT22;9489;50.948;3.114;2023-02-26T10:12:16;15.20;71.70
18721;DHT22;9489;50.948;3.114;2023-02-26T10:14:48;15.70;67.20
18721;DHT22;9489;50.948;3.114;2023-02-26T10:20:26;15.50;67.50
18721;DHT22;9489;50.948;3.114;2023-02-26T10:26:11;15.90;63.70
18721;DHT22;9489;50.948;3.114;2023-02-26T10:28:56;16.40;65.40
18721;DHT22;9489;50.948;3.114;2023-02-26T10:37:18;15.50;61.10
18721;DHT22;9489;50.948;3.114;2023-02-26T10:39:54;15.60;62.20
18721;DHT22;9489;50.948;3.114;2023-02-26T10:42:35;16.20;60.50
18721;DHT22;9489;50.948;3.114;2023-02-26T10:51:00;15.60;59.90
18721;DHT22;9489;50.948;3.114;2023-02-26T10:53:31;15.90;58.20
18721;DHT22;9489;50.948;3.114;2023-02-26T10:56:16;15.20;58.70
18721;DHT22;9489;50.948;3.114;2023-02-26T10:58:44;14.80;60.00
18721;DHT22;9489;50.948;3.114;2023-02-26T11:01:19;14.90;59.10
18721;DHT22;9489;50.948;3.114;2023-02-26T11:03:53;14.80;60.50
18721;DHT22;9489;50.948;3.114;2023-02-26T11:06:43;15.10;59.20
18721;DHT22;9489;50.948;3.114;2023-02-26T11:12:15;16.00;58.70
18721;DHT22;9489;50.948;3.114;2023-02-26T11:14:43;16.60;58.60
18721;DHT22;9489;50.948;3.114;2023-02-26T11:17:23;16.50;57.70
18721;DHT22;9489;50.948;3.114;2023-02-26T11:19:58;16.50;58.20
18721;DHT22;9489;50.948;3.114;2023-02-26T11:22:28;17.10;57.90
18721;DHT22;9489;50.948;3.114;2023-02-26T11:24:56;17.60;57.30
18721;DHT22;9489;50.948;3.114;2023-02-26T11:27:26;17.80;55.40
18721;DHT22;9489;50.948;3.114;2023-02-26T11:29:58;18.10;55.40
18721;DHT22;9489;50.948;3.114;2023-02-26T11:32:33;18.20;55.60
18721;DHT22;9489;50.948;3.114;2023-02-26T11:34:59;17.20;53.80
18721;DHT22;9489;50.948;3.114;2023-02-26T11:37:33;17.20;55.10
18721;DHT22;9489;50.948;3.114;2023-02-26T11:40:05;17.90;54.00
18721;DHT22;9489;50.948;3.114;2023-02-26T11:42:37;17.60;55.10
18721;DHT22;9489;50.948;3.114;2023-02-26T11:45:04;16.70;53.40
18721;DHT22;9489;50.948;3.114;2023-02-26T11:47:32;16.20;54.60
18721;DHT22;9489;50.948;3.114;2023-02-26T11:50:04;16.40;56.10
18721;DHT22;9489;50.948;3.114;2023-02-26T11:52:40;17.00;54.10
18721;DHT22;9489;50.948;3.114;2023-02-26T11:55:27;16.70;54.30
18721;DHT22;9489;50.948;3.114;2023-02-26T11:57:53;16.90;55.00
18721;DHT22;9489;50.948;3.114;2023-02-26T12:00:31;17.70;54.20
18721;DHT22;9489;50.948;3.114;2023-02-26T12:03:02;17.90;53.20
18721;DHT22;9489;50.948;3.114;2023-02-26T12:05:30;17.90;54.00
18721;DHT22;9489;50.948;3.114;2023-02-26T12:07:56;17.40;50.70
18721;DHT22;9489;50.948;3.114;2023-02-26T12:10:47;17.50;51.30
18721;DHT22;9489;50.948;3.114;2023-02-26T12:13:56;16.30;52.00
18721;DHT22;9489;50.948;3.114;2023-02-26T12:25:26;17.70;51.50
18721;DHT22;9489;50.948;3.114;2023-02-26T12:28:12;17.50;53.10
18721;DHT22;9489;50.948;3.114;2023-02-26T12:41:33;16.50;49.70
18721;DHT22;9489;50.948;3.114;2023-02-26T12:44:20;15.40;50.30
18721;DHT22;9489;50.948;3.114;2023-02-26T12:53:00;18.00;51.20
18721;DHT22;9489;50.948;3.114;2023-02-26T12:55:44;18.60;50.70
18721;DHT22;9489;50.948;3.114;2023-02-26T13:01:11;18.30;49.50
18721;DHT22;9489;50.948;3.114;2023-02-26T13:11:58;17.00;52.70
18721;DHT22;9489;50.948;3.114;2023-02-26T13:20:02;17.00;53.40
18721;DHT22;9489;50.948;3.114;2023-02-26T13:22:57;16.80;54.30
18721;DHT22;9489;50.948;3.114;2023-02-26T13:25:37;17.10;52.90
18721;DHT22;9489;50.948;3.114;2023-02-26T13:28:44;16.70;53.40
18721;DHT22;9489;50.948;3.114;2023-02-26T13:31:17;16.60;53.60
18721;DHT22;9489;50.948;3.114;2023-02-26T13:33:45;16.30;53.80
18721;DHT22;9489;50.948;3.114;2023-02-26T13:36:14;16.70;53.70
18721;DHT22;9489;50.948;3.114;2023-02-26T13:41:45;16.10;53.60
18721;DHT22;9489;50.948;3.114;2023-02-26T13:53:32;14.20;58.10
18721;DHT22;9489;50.948;3.114;2023-02-26T13:58:37;15.80;57.00
18721;DHT22;9489;50.948;3.114;2023-02-26T14:03:43;16.00;56.60
18721;DHT22;9489;50.948;3.114;2023-02-26T14:06:24;16.10;57.50
18721;DHT22;9489;50.948;3.114;2023-02-26T14:08:56;15.60;58.10
18721;DHT22;9489;50.948;3.114;2023-02-26T14:11:45;15.00;57.70
18721;DHT22;9489;50.948;3.114;2023-02-26T14:16:39;14.80;60.00
18721;DHT22;9489;50.948;3.114;2023-02-26T14:22:01;15.30;57.70
18721;DHT22;9489;50.948;3.114;2023-02-26T14:27:34;16.30;58.30
18721;DHT22;9489;50.948;3.114;2023-02-26T14:35:43;16.30;57.60
18721;DHT22;9489;50.948;3.114;2023-02-26T14:38:20;16.60;58.70
18721;DHT22;9489;50.948;3.114;2023-02-26T14:40:54;16.80;58.50
18721;DHT22;9489;50.948;3.114;2023-02-26T14:43:38;16.50;57.80
18721;DHT22;9489;50.948;3.114;2023-02-26T14:46:05;15.50;58.80
18721;DHT22;9489;50.948;3.114;2023-02-26T14:48:31;15.30;60.30
18721;DHT22;9489;50.948;3.114;2023-02-26T14:51:21;15.20;59.90
18721;DHT22;9489;50.948;3.114;2023-02-26T14:54:17;14.40;61.60
18721;DHT22;9489;50.948;3.114;2023-02-26T14:56:53;14.50;62.70
18721;DHT22;9489;50.948;3.114;2023-02-26T15:10:17;15.10;60.60
18721;DHT22;9489;50.948;3.114;2023-02-26T15:13:41;15.20;60.60
18721;DHT22;9489;50.948;3.114;2023-02-26T15:15:56;15.10;62.70
18721;DHT22;9489;50.948;3.114;2023-02-26T15:18:52;14.80;62.10
18721;DHT22;9489;50.948;3.114;2023-02-26T15:24:09;13.00;66.00
18721;DHT22;9489;50.948;3.114;2023-02-26T15:26:40;13.40;63.80
18721;DHT22;9489;50.948;3.114;2023-02-26T15:29:10;13.40;64.00
18721;DHT22;9489;50.948;3.114;2023-02-26T15:31:54;13.20;63.10
18721;DHT22;9489;50.948;3.114;2023-02-26T15:34:20;13.30;63.10
18721;DHT22;9489;50.948;3.114;2023-02-26T15:36:48;13.00;63.00
18721;DHT22;9489;50.948;3.114;2023-02-26T15:39:18;12.80;63.30
18721;DHT22;9489;50.948;3.114;2023-02-26T15:41:47;13.00;64.10
18721;DHT22;9489;50.948;3.114;2023-02-26T15:44:15;13.10;63.80
18721;DHT22;9489;50.948;3.114;2023-02-26T15:46:44;13.10;64.10
18721;DHT22;9489;50.948;3.114;2023-02-26T15:49:24;13.30;64.10
18721;DHT22;9489;50.948;3.114;2023-02-26T15:51:52;13.30;63.50
18721;DHT22;9489;50.948;3.114;2023-02-26T15:54:20;13.50;64.90
18721;DHT22;9489;50.948;3.114;2023-02-26T15:56:46;13.10;65.40
18721;DHT22;9489;50.948;3.114;2023-02-26T15:59:17;13.20;65.80
18721;DHT22;9489;50.948;3.114;2023-02-26T16:01:44;13.10;66.50
18721;DHT22;9489;50.948;3.114;2023-02-26T16:04:15;13.30;67.00
18721;DHT22;9489;50.948;3.114;2023-02-26T16:06:46;13.10;65.90
18721;DHT22;9489;50.948;3.114;2023-02-26T16:09:28;13.40;66.60
18721;DHT22;9489;50.948;3.114;2023-02-26T16:11:57;12.90;66.90
18721;DHT22;9489;50.948;3.114;2023-02-26T16:14:28;12.50;67.60
18721;DHT22;9489;50.948;3.114;2023-02-26T16:16:56;12.60;68.50
18721;DHT22;9489;50.948;3.114;2023-02-26T16:19:45;12.40;69.20
18721;DHT22;9489;50.948;3.114;2023-02-26T16:22:28;11.90;71.20
18721;DHT22;9489;50.948;3.114;2023-02-26T16:25:14;11.80;71.70
18721;DHT22;9489;50.948;3.114;2023-02-26T16:27:40;11.70;73.30
18721;DHT22;9489;50.948;3.114;2023-02-26T16:30:16;11.40;74.40
18721;DHT22;9489;50.948;3.114;2023-02-26T16:32:43;11.10;75.80
18721;DHT22;9489;50.948;3.114;2023-02-26T16:35:16;10.80;76.70
18721;DHT22;9489;50.948;3.114;2023-02-26T16:37:46;10.70;77.90
18721;DHT22;9489;50.948;3.114;2023-02-26T16:48:39;10.40;80.40
18721;DHT22;9489;50.948;3.114;2023-02-26T16:51:04;10.00;80.90
18721;DHT22;9489;50.948;3.114;2023-02-26T16:53:36;9.90;81.90
18721;DHT22;9489;50.948;3.114;2023-02-26T16:56:09;9.70;81.80
18721;DHT22;9489;50.948;3.114;2023-02-26T16:58:37;9.50;82.30
18721;DHT22;9489;50.948;3.114;2023-02-26T17:01:11;9.10;82.60
18721;DHT22;9489;50.948;3.114;2023-02-26T17:03:37;9.00;84.70
18721;DHT22;9489;50.948;3.114;2023-02-26T17:06:08;8.70;86.30
18721;DHT22;9489;50.948;3.114;2023-02-26T17:14:15;7.70;91.70
18721;DHT22;9489;50.948;3.114;2023-02-26T17:16:47;7.30;92.20
18721;DHT22;9489;50.948;3.114;2023-02-26T17:19:13;7.20;94.00
18721;DHT22;9489;50.948;3.114;2023-02-26T17:21:51;7.00;94.50
18721;DHT22;9489;50.948;3.114;2023-02-26T17:24:28;7.00;96.10
18721;DHT22;9489;50.948;3.114;2023-02-26T17:26:54;6.90;97.30
18721;DHT22;9489;50.948;3.114;2023-02-26T17:29:31;6.90;98.70
18721;DHT22;9489;50.948;3.114;2023-02-26T17:31:57;6.80;99.60
18721;DHT22;9489;50.948;3.114;2023-02-26T17:34:23;6.80;99.90
18721;DHT22;9489;50.948;3.114;2023-02-26T17:36:49;6.70;99.90
18721;DHT22;9489;50.948;3.114;2023-02-26T17:39:15;6.60;99.90
18721;DHT22;9489;50.948;3.114;2023-02-26T17:41:43;6.60;99.90
18721;DHT22;9489;50.948;3.114;2023-02-26T17:44:09;6.40;99.90
18721;DHT22;9489;50.948;3.114;2023-02-26T17:46:34;6.40;99.90
18721;DHT22;9489;50.948;3.114;2023-02-26T17:49:00;6.30;99.90
18721;DHT22;9489;50.948;3.114;2023-02-26T17:51:25;6.30;99.90
18721;DHT22;9489;50.948;3.114;2023-02-26T17:53:52;6.20;99.90
18721;DHT22;9489;50.948;3.114;2023-02-26T17:56:24;6.10;99.90
18721;DHT22;9489;50.948;3.114;2023-02-26T17:58:51;6.10;99.90
18721;DHT22;9489;50.948;3.114;2023-02-26T18:01:18;6.00;99.90
18721;DHT22;9489;50.948;3.114;2023-02-26T18:03:43;6.00;99.90
18721;DHT22;9489;50.948;3.114;2023-02-26T18:06:12;6.00;99.90
18721;DHT22;9489;50.948;3.114;2023-02-26T18:08:38;6.00;99.90
18721;DHT22;9489;50.948;3.114;2023-02-26T18:11:05;5.90;99.90
18721;DHT22;9489;50.948;3.114;2023-02-26T18:13:32;5.90;99.90
18721;DHT22;9489;50.948;3.114;2023-02-26T18:15:58;5.70;99.90
18721;DHT22;9489;50.948;3.114;2023-02-26T18:18:27;5.70;99.90
18721;DHT22;9489;50.948;3.114;2023-02-26T18:20:53;5.60;99.90
18721;DHT22;9489;50.948;3.114;2023-02-26T18:23:19;5.50;99.90
18721;DHT22;9489;50.948;3.114;2023-02-26T18:25:47;5.50;99.90
18721;DHT22;9489;50.948;3.114;2023-02-26T18:28:23;5.50;99.90
18721;DHT22;9489;50.948;3.114;2023-02-26T18:30:49;5.40;99.90
18721;DHT22;9489;50.948;3.114;2023-02-26T18:33:15;5.40;99.90
18721;DHT22;9489;50.948;3.114;2023-02-26T18:35:46;5.40;99.90
18721;DHT22;9489;50.948;3.114;2023-02-26T18:38:14;5.40;99.90
18721;DHT22;9489;50.948;3.114;2023-02-26T18:40:41;5.30;99.90
18721;DHT22;9489;50.948;3.114;2023-02-26T18:43:06;5.30;99.90
18721;DHT22;9489;50.948;3.114;2023-02-26T18:45:34;5.30;99.90
18721;DHT22;9489;50.948;3.114;2023-02-26T18:48:00;5.30;99.90
18721;DHT22;9489;50.948;3.114;2023-02-26T18:50:26;5.20;99.90
18721;DHT22;9489;50.948;3.114;2023-02-26T18:52:51;5.20;99.90
18721;DHT22;9489;50.948;3.114;2023-02-26T18:55:17;5.10;99.90
18721;DHT22;9489;50.948;3.114;2023-02-26T18:57:42;5.00;99.90
18721;DHT22;9489;50.948;3.114;2023-02-26T19:00:11;5.00;99.90
18721;DHT22;9489;50.948;3.114;2023-02-26T19:02:41;5.00;99.90
18721;DHT22;9489;50.948;3.114;2023-02-26T19:05:08;5.00;99.90
18721;DHT22;9489;50.948;3.114;2023-02-26T19:07:35;4.90;99.90
18721;DHT22;9489;50.948;3.114;2023-02-26T19:10:01;4.90;99.90
18721;DHT22;9489;50.948;3.114;2023-02-26T19:12:27;4.90;99.90
18721;DHT22;9489;50.948;3.114;2023-02-26T19:14:53;4.90;99.90
18721;DHT22;9489;50.948;3.114;2023-02-26T19:17:19;4.90;99.90